sensor_id;sensor_type;location;lat;lon;timestamp;pressure;altitude;pressure_sealevel;temperature;humidity
10135;BME280;5107;48.850;8.924;2023-06-10T00:02:15;96457.56;;;17.08;65.20
10135;BME280;5107;48.850;8.924;2023-06-10T00:04:42;96450.47;;;17.02;65.41
10135;BME280;5107;48.850;8.924;2023-06-10T00:07:08;96451.69;;;17.06;65.61
10135;BME280;5107;48.850;8.924;2023-06-10T00:09:36;96448.47;;;17.22;65.11
10135;BME280;5107;48.850;8.924;2023-06-10T00:12:04;96448.50;;;17.16;65.30
10135;BME280;5107;48.850;8.924;2023-06-10T00:14:32;96455.38;;;17.05;65.28
10135;BME280;5107;48.850;8.924;2023-06-10T00:16:57;96451.72;;;16.99;65.51
10135;BME280;5107;48.850;8.924;2023-06-10T00:19:23;96456.25;;;16.92;65.84
10135;BME280;5107;48.850;8.924;2023-06-10T00:21:51;96453.78;;;16.97;65.61
10135;BME280;5107;48.850;8.924;2023-06-10T00:24:17;96450.91;;;16.99;65.85
10135;BME280;5107;48.850;8.924;2023-06-10T00:26:43;96442.34;;;16.97;66.66
10135;BME280;5107;48.850;8.924;2023-06-10T00:29:08;96446.44;;;16.93;66.52
10135;BME280;5107;48.850;8.924;2023-06-10T00:31:35;96448.03;;;17.00;66.97
10135;BME280;5107;48.850;8.924;2023-06-10T00:34:00;96446.91;;;17.15;66.83
10135;BME280;5107;48.850;8.924;2023-06-10T00:36:26;96452.53;;;17.00;66.32
10135;BME280;5107;48.850;8.924;2023-06-10T00:38:52;96450.78;;;16.87;66.75
10135;BME280;5107;48.850;8.924;2023-06-10T00:41:17;96446.50;;;16.86;67.48
10135;BME280;5107;48.850;8.924;2023-06-10T00:43:43;96448.88;;;16.69;67.44
10135;BME280;5107;48.850;8.924;2023-06-10T00:46:09;96452.97;;;16.59;67.80
10135;BME280;5107;48.850;8.924;2023-06-10T00:48:35;96461.59;;;16.61;69.11
10135;BME280;5107;48.850;8.924;2023-06-10T00:51:00;96457.16;;;16.48;69.09
10135;BME280;5107;48.850;8.924;2023-06-10T00:53:26;96450.88;;;16.36;69.69
10135;BME280;5107;48.850;8.924;2023-06-10T00:55:53;96454.34;;;16.37;69.75
10135;BME280;5107;48.850;8.924;2023-06-10T00:58:18;96448.81;;;16.38;70.29
10135;BME280;5107;48.850;8.924;2023-06-10T01:00:44;96451.59;;;16.50;69.97
10135;BME280;5107;48.850;8.924;2023-06-10T01:03:10;96456.75;;;16.45;69.57
10135;BME280;5107;48.850;8.924;2023-06-10T01:05:38;96448.63;;;16.40;69.46
10135;BME280;5107;48.850;8.924;2023-06-10T01:08:09;96449.66;;;16.39;69.62
10135;BME280;5107;48.850;8.924;2023-06-10T01:10:59;96459.63;;;16.43;69.48
10135;BME280;5107;48.850;8.924;2023-06-10T01:13:25;96453.69;;;16.41;69.50
10135;BME280;5107;48.850;8.924;2023-06-10T01:15:54;96456.34;;;16.48;69.52
10135;BME280;5107;48.850;8.924;2023-06-10T01:18:20;96447.34;;;16.42;69.47
10135;BME280;5107;48.850;8.924;2023-06-10T01:20:47;96450.47;;;16.39;69.26
10135;BME280;5107;48.850;8.924;2023-06-10T01:23:14;96444.94;;;16.34;69.49
10135;BME280;5107;48.850;8.924;2023-06-10T01:25:44;96445.16;;;16.39;69.30
10135;BME280;5107;48.850;8.924;2023-06-10T01:28:21;96446.97;;;16.39;69.15
10135;BME280;5107;48.850;8.924;2023-06-10T01:31:18;96450.88;;;16.36;69.11
10135;BME280;5107;48.850;8.924;2023-06-10T01:33:53;96446.53;;;16.42;69.42
10135;BME280;5107;48.850;8.924;2023-06-10T01:36:20;96442.88;;;16.43;69.31
10135;BME280;5107;48.850;8.924;2023-06-10T01:38:47;96445.41;;;16.31;69.29
10135;BME280;5107;48.850;8.924;2023-06-10T01:41:16;96445.66;;;16.16;69.56
10135;BME280;5107;48.850;8.924;2023-06-10T01:43:43;96449.16;;;16.10;69.83
10135;BME280;5107;48.850;8.924;2023-06-10T01:46:09;96448.75;;;16.13;70.30
10135;BME280;5107;48.850;8.924;2023-06-10T01:48:37;96450.13;;;16.22;70.54
10135;BME280;5107;48.850;8.924;2023-06-10T01:51:03;96453.41;;;16.18;70.35
10135;BME280;5107;48.850;8.924;2023-06-10T01:53:28;96452.78;;;16.16;70.82
10135;BME280;5107;48.850;8.924;2023-06-10T01:55:53;96458.75;;;16.11;70.60
10135;BME280;5107;48.850;8.924;2023-06-10T01:58:18;96459.16;;;16.08;70.83
10135;BME280;5107;48.850;8.924;2023-06-10T02:00:44;96452.41;;;16.12;70.61
10135;BME280;5107;48.850;8.924;2023-06-10T02:03:09;96460.84;;;15.96;70.75
10135;BME280;5107;48.850;8.924;2023-06-10T02:05:35;96459.84;;;15.84;71.21
10135;BME280;5107;48.850;8.924;2023-06-10T02:08:00;96460.91;;;15.76;71.03
10135;BME280;5107;48.850;8.924;2023-06-10T02:10:26;96459.91;;;15.71;71.19
10135;BME280;5107;48.850;8.924;2023-06-10T02:12:51;96462.34;;;15.66;72.17
10135;BME280;5107;48.850;8.924;2023-06-10T02:15:17;96467.03;;;15.77;72.06
10135;BME280;5107;48.850;8.924;2023-06-10T02:17:42;96468.28;;;15.68;72.35
10135;BME280;5107;48.850;8.924;2023-06-10T02:20:08;96475.00;;;15.57;72.52
10135;BME280;5107;48.850;8.924;2023-06-10T02:22:36;96472.97;;;15.46;72.57
10135;BME280;5107;48.850;8.924;2023-06-10T02:25:01;96473.78;;;15.33;73.35
10135;BME280;5107;48.850;8.924;2023-06-10T02:27:27;96469.31;;;15.27;73.29
10135;BME280;5107;48.850;8.924;2023-06-10T02:29:52;96463.00;;;15.22;73.65
10135;BME280;5107;48.850;8.924;2023-06-10T02:32:17;96469.72;;;15.11;74.30
10135;BME280;5107;48.850;8.924;2023-06-10T02:34:43;96476.25;;;15.08;74.53
10135;BME280;5107;48.850;8.924;2023-06-10T02:37:09;96473.41;;;15.10;74.76
10135;BME280;5107;48.850;8.924;2023-06-10T02:39:34;96478.50;;;15.05;74.93
10135;BME280;5107;48.850;8.924;2023-06-10T02:41:59;96479.09;;;15.07;74.93
10135;BME280;5107;48.850;8.924;2023-06-10T02:44:25;96481.56;;;15.02;74.96
10135;BME280;5107;48.850;8.924;2023-06-10T02:46:50;96482.38;;;15.02;75.05
10135;BME280;5107;48.850;8.924;2023-06-10T02:49:16;96485.84;;;15.03;75.52
10135;BME280;5107;48.850;8.924;2023-06-10T02:51:41;96484.81;;;15.17;75.74
10135;BME280;5107;48.850;8.924;2023-06-10T02:54:07;96487.28;;;15.12;74.85
10135;BME280;5107;48.850;8.924;2023-06-10T02:56:32;96490.31;;;15.02;74.58
10135;BME280;5107;48.850;8.924;2023-06-10T02:58:58;96479.53;;;14.97;74.82
10135;BME280;5107;48.850;8.924;2023-06-10T03:01:24;96486.47;;;15.05;75.17
10135;BME280;5107;48.850;8.924;2023-06-10T03:03:49;96485.84;;;14.96;75.44
10135;BME280;5107;48.850;8.924;2023-06-10T03:06:15;96484.00;;;14.97;75.29
10135;BME280;5107;48.850;8.924;2023-06-10T03:08:41;96485.63;;;15.04;76.24
10135;BME280;5107;48.850;8.924;2023-06-10T03:11:06;96496.03;;;15.06;76.03
10135;BME280;5107;48.850;8.924;2023-06-10T03:13:32;96485.84;;;15.03;75.90
10135;BME280;5107;48.850;8.924;2023-06-10T03:15:58;96487.28;;;15.05;75.75
10135;BME280;5107;48.850;8.924;2023-06-10T03:18:27;96496.03;;;15.06;75.67
10135;BME280;5107;48.850;8.924;2023-06-10T03:20:54;96491.13;;;15.03;75.00
10135;BME280;5107;48.850;8.924;2023-06-10T03:23:20;96487.06;;;15.00;74.95
10135;BME280;5107;48.850;8.924;2023-06-10T03:25:45;96498.69;;;15.06;74.67
10135;BME280;5107;48.850;8.924;2023-06-10T03:28:11;96490.94;;;15.04;74.82
10135;BME280;5107;48.850;8.924;2023-06-10T03:30:36;96502.16;;;15.13;74.12
10135;BME280;5107;48.850;8.924;2023-06-10T03:33:02;96505.63;;;15.20;74.18
10135;BME280;5107;48.850;8.924;2023-06-10T03:35:27;96506.22;;;15.15;74.37
10135;BME280;5107;48.850;8.924;2023-06-10T03:37:52;96507.84;;;15.23;74.13
10135;BME280;5107;48.850;8.924;2023-06-10T03:40:18;96506.84;;;15.31;74.01
10135;BME280;5107;48.850;8.924;2023-06-10T03:42:43;96510.50;;;15.23;73.86
10135;BME280;5107;48.850;8.924;2023-06-10T03:45:09;96510.09;;;15.26;73.74
10135;BME280;5107;48.850;8.924;2023-06-10T03:47:35;96509.91;;;15.28;73.61
10135;BME280;5107;48.850;8.924;2023-06-10T03:50:01;96516.22;;;15.33;73.07
10135;BME280;5107;48.850;8.924;2023-06-10T03:52:27;96520.50;;;15.34;73.31
10135;BME280;5107;48.850;8.924;2023-06-10T03:54:52;96522.94;;;15.42;73.74
10135;BME280;5107;48.850;8.924;2023-06-10T03:57:17;96520.50;;;15.47;73.61
10135;BME280;5107;48.850;8.924;2023-06-10T03:59:42;96524.38;;;15.51;73.47
10135;BME280;5107;48.850;8.924;2023-06-10T04:02:08;96520.53;;;15.61;73.19
10135;BME280;5107;48.850;8.924;2023-06-10T04:04:34;96523.13;;;15.87;72.92
10135;BME280;5107;48.850;8.924;2023-06-10T04:07:00;96526.91;;;16.30;72.13
10135;BME280;5107;48.850;8.924;2023-06-10T04:09:25;96522.16;;;16.90;70.55
10135;BME280;5107;48.850;8.924;2023-06-10T04:11:50;96521.41;;;17.82;66.93
10135;BME280;5107;48.850;8.924;2023-06-10T04:14:16;96524.59;;;18.82;62.56
10135;BME280;5107;48.850;8.924;2023-06-10T04:16:41;96520.75;;;19.85;58.98
10135;BME280;5107;48.850;8.924;2023-06-10T04:19:08;96522.38;;;20.72;55.67
10135;BME280;5107;48.850;8.924;2023-06-10T04:21:33;96526.09;;;21.62;52.86
10135;BME280;5107;48.850;8.924;2023-06-10T04:23:58;96525.03;;;22.34;51.11
10135;BME280;5107;48.850;8.924;2023-06-10T04:26:24;96524.69;;;22.91;49.61
10135;BME280;5107;48.850;8.924;2023-06-10T04:28:50;96529.91;;;23.62;47.22
10135;BME280;5107;48.850;8.924;2023-06-10T04:31:16;96535.00;;;24.32;46.07
10135;BME280;5107;48.850;8.924;2023-06-10T04:33:41;96537.38;;;24.86;44.47
10135;BME280;5107;48.850;8.924;2023-06-10T04:36:06;96530.50;;;25.30;43.23
10135;BME280;5107;48.850;8.924;2023-06-10T04:38:32;96537.25;;;25.53;42.06
10135;BME280;5107;48.850;8.924;2023-06-10T04:40:57;96531.09;;;25.83;41.99
10135;BME280;5107;48.850;8.924;2023-06-10T04:43:23;96534.84;;;25.97;41.24
10135;BME280;5107;48.850;8.924;2023-06-10T04:45:48;96534.31;;;27.00;39.05
10135;BME280;5107;48.850;8.924;2023-06-10T04:48:13;96532.81;;;27.28;39.58
10135;BME280;5107;48.850;8.924;2023-06-10T04:50:39;96537.56;;;27.02;39.62
10135;BME280;5107;48.850;8.924;2023-06-10T04:53:04;96536.00;;;27.35;38.04
10135;BME280;5107;48.850;8.924;2023-06-10T04:55:31;96536.09;;;27.93;38.12
10135;BME280;5107;48.850;8.924;2023-06-10T04:57:56;96531.75;;;28.50;36.69
10135;BME280;5107;48.850;8.924;2023-06-10T05:00:22;96540.34;;;28.81;36.36
10135;BME280;5107;48.850;8.924;2023-06-10T05:02:48;96538.03;;;28.93;35.74
10135;BME280;5107;48.850;8.924;2023-06-10T05:05:16;96538.56;;;29.14;35.57
10135;BME280;5107;48.850;8.924;2023-06-10T05:07:42;96547.03;;;28.88;35.53
10135;BME280;5107;48.850;8.924;2023-06-10T05:10:08;96544.88;;;29.09;34.83
10135;BME280;5107;48.850;8.924;2023-06-10T05:12:33;96553.81;;;29.10;34.75
10135;BME280;5107;48.850;8.924;2023-06-10T05:14:58;96547.78;;;28.70;35.40
10135;BME280;5107;48.850;8.924;2023-06-10T05:17:24;96549.63;;;28.98;35.22
10135;BME280;5107;48.850;8.924;2023-06-10T05:19:50;96547.13;;;29.02;35.19
10135;BME280;5107;48.850;8.924;2023-06-10T05:22:16;96548.44;;;29.04;35.11
10135;BME280;5107;48.850;8.924;2023-06-10T05:24:43;96552.44;;;28.88;34.92
10135;BME280;5107;48.850;8.924;2023-06-10T05:27:09;96549.41;;;28.95;35.35
10135;BME280;5107;48.850;8.924;2023-06-10T05:29:34;96547.56;;;28.90;35.49
10135;BME280;5107;48.850;8.924;2023-06-10T05:31:59;96560.72;;;29.21;35.24
10135;BME280;5107;48.850;8.924;2023-06-10T05:34:28;96550.25;;;28.66;36.24
10135;BME280;5107;48.850;8.924;2023-06-10T05:36:54;96552.88;;;27.95;36.96
10135;BME280;5107;48.850;8.924;2023-06-10T05:39:19;96563.72;;;27.56;38.34
10135;BME280;5107;48.850;8.924;2023-06-10T05:41:45;96553.47;;;27.48;38.30
10135;BME280;5107;48.850;8.924;2023-06-10T05:44:11;96555.66;;;27.02;39.39
10135;BME280;5107;48.850;8.924;2023-06-10T05:46:36;96559.78;;;27.33;39.22
10135;BME280;5107;48.850;8.924;2023-06-10T05:49:01;96559.06;;;27.17;39.33
10135;BME280;5107;48.850;8.924;2023-06-10T05:51:27;96559.97;;;27.03;39.96
10135;BME280;5107;48.850;8.924;2023-06-10T05:53:53;96563.81;;;26.92;40.40
10135;BME280;5107;48.850;8.924;2023-06-10T05:56:19;96563.91;;;26.61;40.94
10135;BME280;5107;48.850;8.924;2023-06-10T05:58:45;96573.81;;;26.81;41.39
10135;BME280;5107;48.850;8.924;2023-06-10T06:01:10;96571.63;;;26.83;41.56
10135;BME280;5107;48.850;8.924;2023-06-10T06:03:36;96575.81;;;26.45;41.52
10135;BME280;5107;48.850;8.924;2023-06-10T06:06:02;96566.28;;;26.73;41.72
10135;BME280;5107;48.850;8.924;2023-06-10T06:08:28;96576.25;;;26.77;41.09
10135;BME280;5107;48.850;8.924;2023-06-10T06:10:53;96564.53;;;26.02;42.65
10135;BME280;5107;48.850;8.924;2023-06-10T06:13:18;96574.50;;;25.82;42.48
10135;BME280;5107;48.850;8.924;2023-06-10T06:15:44;96575.72;;;25.13;44.91
10135;BME280;5107;48.850;8.924;2023-06-10T06:18:10;96574.25;;;25.73;44.31
10135;BME280;5107;48.850;8.924;2023-06-10T06:20:35;96570.44;;;26.04;43.02
10135;BME280;5107;48.850;8.924;2023-06-10T06:23:00;96573.19;;;25.94;44.07
10135;BME280;5107;48.850;8.924;2023-06-10T06:25:26;96569.91;;;26.07;43.29
10135;BME280;5107;48.850;8.924;2023-06-10T06:27:52;96577.47;;;26.16;43.53
10135;BME280;5107;48.850;8.924;2023-06-10T06:30:20;96573.97;;;25.90;43.83
10135;BME280;5107;48.850;8.924;2023-06-10T06:32:45;96574.22;;;26.14;43.81
10135;BME280;5107;48.850;8.924;2023-06-10T06:35:10;96580.44;;;26.04;44.06
10135;BME280;5107;48.850;8.924;2023-06-10T06:37:36;96579.88;;;26.22;43.17
10135;BME280;5107;48.850;8.924;2023-06-10T06:40:01;96576.13;;;25.78;44.33
10135;BME280;5107;48.850;8.924;2023-06-10T06:42:26;96573.69;;;26.17;43.56
10135;BME280;5107;48.850;8.924;2023-06-10T06:44:52;96574.78;;;26.36;44.21
10135;BME280;5107;48.850;8.924;2023-06-10T06:47:17;96581.25;;;26.15;43.80
10135;BME280;5107;48.850;8.924;2023-06-10T06:49:45;96586.13;;;25.92;44.07
10135;BME280;5107;48.850;8.924;2023-06-10T06:52:11;96597.31;;;25.28;44.90
10135;BME280;5107;48.850;8.924;2023-06-10T06:54:36;96589.53;;;25.37;45.02
10135;BME280;5107;48.850;8.924;2023-06-10T06:57:01;96593.28;;;25.26;44.69
10135;BME280;5107;48.850;8.924;2023-06-10T06:59:27;96594.63;;;25.18;45.77
10135;BME280;5107;48.850;8.924;2023-06-10T07:01:52;96590.38;;;25.48;45.21
10135;BME280;5107;48.850;8.924;2023-06-10T07:04:19;96586.06;;;25.52;45.00
10135;BME280;5107;48.850;8.924;2023-06-10T07:06:47;96589.00;;;25.40;44.35
10135;BME280;5107;48.850;8.924;2023-06-10T07:09:12;96583.31;;;25.26;44.77
10135;BME280;5107;48.850;8.924;2023-06-10T07:11:37;96590.88;;;25.35;44.79
10135;BME280;5107;48.850;8.924;2023-06-10T07:14:03;96588.44;;;25.28;45.06
10135;BME280;5107;48.850;8.924;2023-06-10T07:16:28;96591.97;;;25.39;45.10
10135;BME280;5107;48.850;8.924;2023-06-10T07:18:53;96594.41;;;25.40;45.04
10135;BME280;5107;48.850;8.924;2023-06-10T07:21:19;96585.56;;;25.60;45.82
10135;BME280;5107;48.850;8.924;2023-06-10T07:23:44;96589.06;;;25.96;44.96
10135;BME280;5107;48.850;8.924;2023-06-10T07:26:10;96585.56;;;25.95;44.65
10135;BME280;5107;48.850;8.924;2023-06-10T07:28:38;96596.63;;;25.68;44.75
10135;BME280;5107;48.850;8.924;2023-06-10T07:31:03;96586.03;;;25.47;44.83
10135;BME280;5107;48.850;8.924;2023-06-10T07:33:29;96589.19;;;25.13;45.21
10135;BME280;5107;48.850;8.924;2023-06-10T07:35:54;96595.59;;;24.92;46.85
10135;BME280;5107;48.850;8.924;2023-06-10T07:38:20;96598.88;;;25.04;46.11
10135;BME280;5107;48.850;8.924;2023-06-10T07:40:45;96589.22;;;25.28;45.86
10135;BME280;5107;48.850;8.924;2023-06-10T07:43:11;96596.25;;;25.29;46.08
10135;BME280;5107;48.850;8.924;2023-06-10T07:45:36;96600.88;;;25.54;45.01
10135;BME280;5107;48.850;8.924;2023-06-10T07:48:02;96590.97;;;25.85;45.25
10135;BME280;5107;48.850;8.924;2023-06-10T07:50:27;96591.50;;;26.02;43.77
10135;BME280;5107;48.850;8.924;2023-06-10T07:52:52;96583.66;;;26.06;44.19
10135;BME280;5107;48.850;8.924;2023-06-10T07:55:18;96584.19;;;26.28;43.69
10135;BME280;5107;48.850;8.924;2023-06-10T07:57:43;96588.81;;;25.87;44.89
10135;BME280;5107;48.850;8.924;2023-06-10T08:00:09;96585.56;;;26.05;43.26
10135;BME280;5107;48.850;8.924;2023-06-10T08:02:34;96582.06;;;25.95;43.79
10135;BME280;5107;48.850;8.924;2023-06-10T08:05:00;96580.72;;;25.67;43.71
10135;BME280;5107;48.850;8.924;2023-06-10T08:07:25;96586.56;;;25.33;44.55
10135;BME280;5107;48.850;8.924;2023-06-10T08:09:50;96585.03;;;25.68;45.04
10135;BME280;5107;48.850;8.924;2023-06-10T08:12:16;96578.50;;;25.49;44.98
10135;BME280;5107;48.850;8.924;2023-06-10T08:14:41;96580.19;;;24.87;46.43
10135;BME280;5107;48.850;8.924;2023-06-10T08:17:07;96587.16;;;25.51;45.37
10135;BME280;5107;48.850;8.924;2023-06-10T08:19:32;96579.63;;;26.19;44.26
10135;BME280;5107;48.850;8.924;2023-06-10T08:21:57;96588.78;;;26.23;43.96
10135;BME280;5107;48.850;8.924;2023-06-10T08:24:23;96587.16;;;26.37;45.11
10135;BME280;5107;48.850;8.924;2023-06-10T08:26:48;96585.28;;;26.17;43.30
10135;BME280;5107;48.850;8.924;2023-06-10T08:29:13;96577.72;;;26.29;43.90
10135;BME280;5107;48.850;8.924;2023-06-10T08:31:43;96585.03;;;26.19;44.14
10135;BME280;5107;48.850;8.924;2023-06-10T08:34:09;96595.25;;;25.86;43.83
10135;BME280;5107;48.850;8.924;2023-06-10T08:36:34;96591.53;;;26.28;43.68
10135;BME280;5107;48.850;8.924;2023-06-10T08:38:59;96587.94;;;26.58;44.06
10135;BME280;5107;48.850;8.924;2023-06-10T08:41:28;96585.78;;;26.60;42.54
10135;BME280;5107;48.850;8.924;2023-06-10T08:44:08;96586.88;;;26.49;43.13
10135;BME280;5107;48.850;8.924;2023-06-10T08:46:36;96586.59;;;26.55;43.60
10135;BME280;5107;48.850;8.924;2023-06-10T08:49:06;96593.06;;;26.59;44.17
10135;BME280;5107;48.850;8.924;2023-06-10T08:51:34;96594.69;;;26.55;42.84
10135;BME280;5107;48.850;8.924;2023-06-10T08:54:04;96587.97;;;26.42;43.94
10135;BME280;5107;48.850;8.924;2023-06-10T08:56:32;96584.72;;;26.40;43.56
10135;BME280;5107;48.850;8.924;2023-06-10T08:59:03;96582.31;;;26.34;43.21
10135;BME280;5107;48.850;8.924;2023-06-10T09:01:28;96580.91;;;26.57;42.87
10135;BME280;5107;48.850;8.924;2023-06-10T09:03:55;96588.91;;;26.87;42.85
10135;BME280;5107;48.850;8.924;2023-06-10T09:06:21;96576.84;;;26.64;42.11
10135;BME280;5107;48.850;8.924;2023-06-10T09:08:47;96574.19;;;26.49;42.79
10135;BME280;5107;48.850;8.924;2023-06-10T09:11:12;96581.75;;;26.37;43.25
10135;BME280;5107;48.850;8.924;2023-06-10T09:13:37;96575.22;;;26.63;43.56
10135;BME280;5107;48.850;8.924;2023-06-10T09:16:03;96573.56;;;26.72;42.70
10135;BME280;5107;48.850;8.924;2023-06-10T09:18:29;96571.72;;;26.68;42.33
10135;BME280;5107;48.850;8.924;2023-06-10T09:20:55;96582.31;;;26.39;43.21
10135;BME280;5107;48.850;8.924;2023-06-10T09:23:21;96580.84;;;26.72;42.83
10135;BME280;5107;48.850;8.924;2023-06-10T09:25:55;96582.69;;;26.97;42.93
10135;BME280;5107;48.850;8.924;2023-06-10T09:28:21;96573.34;;;27.28;41.71
10135;BME280;5107;48.850;8.924;2023-06-10T09:30:46;96572.09;;;27.60;40.96
10135;BME280;5107;48.850;8.924;2023-06-10T09:33:15;96571.84;;;27.07;42.21
10135;BME280;5107;48.850;8.924;2023-06-10T09:35:49;96567.44;;;27.65;41.08
10135;BME280;5107;48.850;8.924;2023-06-10T09:38:19;96565.41;;;27.81;40.73
10135;BME280;5107;48.850;8.924;2023-06-10T09:40:53;96569.13;;;27.90;40.28
10135;BME280;5107;48.850;8.924;2023-06-10T09:43:20;96570.00;;;27.85;41.38
10135;BME280;5107;48.850;8.924;2023-06-10T09:45:49;96574.59;;;28.14;40.04
10135;BME280;5107;48.850;8.924;2023-06-10T09:48:14;96570.69;;;27.96;39.71
10135;BME280;5107;48.850;8.924;2023-06-10T09:50:43;96564.19;;;28.31;41.06
10135;BME280;5107;48.850;8.924;2023-06-10T09:53:10;96563.06;;;28.85;41.30
10135;BME280;5107;48.850;8.924;2023-06-10T09:55:38;96565.06;;;28.50;39.83
10135;BME280;5107;48.850;8.924;2023-06-10T09:58:03;96569.22;;;28.43;41.43
10135;BME280;5107;48.850;8.924;2023-06-10T10:00:32;96566.25;;;28.39;40.79
10135;BME280;5107;48.850;8.924;2023-06-10T10:02:58;96558.31;;;28.24;41.05
10135;BME280;5107;48.850;8.924;2023-06-10T10:05:24;96559.91;;;28.25;40.27
10135;BME280;5107;48.850;8.924;2023-06-10T10:07:49;96560.84;;;28.39;40.17
10135;BME280;5107;48.850;8.924;2023-06-10T10:10:17;96564.28;;;27.87;40.42
10135;BME280;5107;48.850;8.924;2023-06-10T10:12:42;96556.50;;;27.41;41.28
10135;BME280;5107;48.850;8.924;2023-06-10T10:15:10;96558.84;;;27.53;41.23
10135;BME280;5107;48.850;8.924;2023-06-10T10:20:20;96559.56;;;28.31;40.17
10135;BME280;5107;48.850;8.924;2023-06-10T10:22:49;96556.78;;;28.89;40.72
10135;BME280;5107;48.850;8.924;2023-06-10T10:25:23;96554.81;;;29.14;38.42
10135;BME280;5107;48.850;8.924;2023-06-10T10:27:51;96553.41;;;29.59;37.22
10135;BME280;5107;48.850;8.924;2023-06-10T10:30:17;96550.53;;;28.89;38.11
10135;BME280;5107;48.850;8.924;2023-06-10T10:33:04;96557.69;;;28.56;39.47
10135;BME280;5107;48.850;8.924;2023-06-10T10:35:31;96553.88;;;29.04;36.83
10135;BME280;5107;48.850;8.924;2023-06-10T10:37:58;96551.16;;;29.04;37.01
10135;BME280;5107;48.850;8.924;2023-06-10T10:40:24;96556.13;;;28.74;37.17
10135;BME280;5107;48.850;8.924;2023-06-10T10:42:51;96556.00;;;29.08;37.62
10135;BME280;5107;48.850;8.924;2023-06-10T10:45:18;96546.63;;;29.00;37.37
10135;BME280;5107;48.850;8.924;2023-06-10T10:47:45;96553.06;;;28.33;37.76
10135;BME280;5107;48.850;8.924;2023-06-10T10:50:15;96550.75;;;28.21;37.97
10135;BME280;5107;48.850;8.924;2023-06-10T10:53:01;96545.72;;;28.86;38.01
10135;BME280;5107;48.850;8.924;2023-06-10T10:55:27;96544.75;;;28.77;37.75
10135;BME280;5107;48.850;8.924;2023-06-10T10:58:02;96540.31;;;29.23;36.61
10135;BME280;5107;48.850;8.924;2023-06-10T11:00:37;96537.16;;;28.97;36.09
10135;BME280;5107;48.850;8.924;2023-06-10T11:03:13;96539.06;;;28.73;36.90
10135;BME280;5107;48.850;8.924;2023-06-10T11:05:46;96542.59;;;28.74;36.54
10135;BME280;5107;48.850;8.924;2023-06-10T11:11:00;96535.97;;;28.85;36.88
10135;BME280;5107;48.850;8.924;2023-06-10T11:13:26;96540.84;;;29.63;36.02
10135;BME280;5107;48.850;8.924;2023-06-10T11:15:52;96534.28;;;29.83;35.55
10135;BME280;5107;48.850;8.924;2023-06-10T11:18:38;96533.59;;;29.02;35.86
10135;BME280;5107;48.850;8.924;2023-06-10T11:21:05;96533.13;;;28.71;36.16
10135;BME280;5107;48.850;8.924;2023-06-10T11:23:37;96531.56;;;28.65;36.28
10135;BME280;5107;48.850;8.924;2023-06-10T11:26:16;96533.19;;;28.18;37.47
10135;BME280;5107;48.850;8.924;2023-06-10T11:31:19;96531.19;;;27.27;39.40
10135;BME280;5107;48.850;8.924;2023-06-10T11:33:47;96531.72;;;27.68;38.73
10135;BME280;5107;48.850;8.924;2023-06-10T11:36:13;96531.06;;;28.10;38.15
10135;BME280;5107;48.850;8.924;2023-06-10T11:38:38;96520.84;;;28.55;37.34
10135;BME280;5107;48.850;8.924;2023-06-10T11:41:04;96517.97;;;29.13;37.01
10135;BME280;5107;48.850;8.924;2023-06-10T11:43:30;96523.84;;;29.38;36.19
10135;BME280;5107;48.850;8.924;2023-06-10T11:45:55;96509.28;;;29.53;36.14
10135;BME280;5107;48.850;8.924;2023-06-10T11:48:21;96508.75;;;29.51;36.41
10135;BME280;5107;48.850;8.924;2023-06-10T11:50:47;96513.63;;;29.35;34.83
10135;BME280;5107;48.850;8.924;2023-06-10T11:53:12;96509.16;;;30.09;35.43
10135;BME280;5107;48.850;8.924;2023-06-10T11:55:51;96512.63;;;29.08;35.97
10135;BME280;5107;48.850;8.924;2023-06-10T11:58:19;96512.88;;;28.45;37.94
10135;BME280;5107;48.850;8.924;2023-06-10T12:00:51;96508.97;;;27.98;38.44
10135;BME280;5107;48.850;8.924;2023-06-10T12:03:19;96511.75;;;27.93;38.96
10135;BME280;5107;48.850;8.924;2023-06-10T12:06:01;96507.44;;;28.45;37.49
10135;BME280;5107;48.850;8.924;2023-06-10T12:08:27;96504.91;;;28.96;36.97
10135;BME280;5107;48.850;8.924;2023-06-10T12:10:53;96507.59;;;29.20;36.63
10135;BME280;5107;48.850;8.924;2023-06-10T12:13:19;96507.31;;;29.72;36.74
10135;BME280;5107;48.850;8.924;2023-06-10T12:15:44;96508.16;;;29.87;35.82
10135;BME280;5107;48.850;8.924;2023-06-10T12:18:21;96505.47;;;29.87;35.28
10135;BME280;5107;48.850;8.924;2023-06-10T12:20:47;96501.53;;;30.25;36.02
10135;BME280;5107;48.850;8.924;2023-06-10T12:23:14;96498.22;;;30.69;34.98
10135;BME280;5107;48.850;8.924;2023-06-10T12:25:49;96495.69;;;30.45;33.37
10135;BME280;5107;48.850;8.924;2023-06-10T12:28:16;96501.84;;;30.37;33.81
10135;BME280;5107;48.850;8.924;2023-06-10T12:30:43;96502.84;;;30.41;34.50
10135;BME280;5107;48.850;8.924;2023-06-10T12:33:18;96499.00;;;30.42;32.96
10135;BME280;5107;48.850;8.924;2023-06-10T12:35:53;96501.81;;;30.10;33.77
10135;BME280;5107;48.850;8.924;2023-06-10T12:38:22;96499.63;;;29.93;35.34
10135;BME280;5107;48.850;8.924;2023-06-10T12:40:49;96497.31;;;29.87;34.72
10135;BME280;5107;48.850;8.924;2023-06-10T12:43:20;96493.13;;;29.94;34.54
10135;BME280;5107;48.850;8.924;2023-06-10T12:45:46;96496.78;;;30.17;34.74
10135;BME280;5107;48.850;8.924;2023-06-10T12:48:22;96493.38;;;30.39;33.13
10135;BME280;5107;48.850;8.924;2023-06-10T12:50:52;96492.41;;;30.62;33.40
10135;BME280;5107;48.850;8.924;2023-06-10T12:53:19;96489.31;;;31.05;33.39
10135;BME280;5107;48.850;8.924;2023-06-10T12:55:45;96492.16;;;30.17;33.39
10135;BME280;5107;48.850;8.924;2023-06-10T12:58:11;96491.81;;;29.22;34.71
10135;BME280;5107;48.850;8.924;2023-06-10T13:00:37;96495.56;;;29.07;35.05
10135;BME280;5107;48.850;8.924;2023-06-10T13:03:02;96488.50;;;29.06;35.45
10135;BME280;5107;48.850;8.924;2023-06-10T13:05:30;96491.91;;;28.74;36.79
10135;BME280;5107;48.850;8.924;2023-06-10T13:07:56;96486.31;;;29.08;36.47
10135;BME280;5107;48.850;8.924;2023-06-10T13:10:22;96489.94;;;29.03;35.62
10135;BME280;5107;48.850;8.924;2023-06-10T13:12:47;96488.94;;;29.13;35.23
10135;BME280;5107;48.850;8.924;2023-06-10T13:15:14;96495.81;;;28.44;36.35
10135;BME280;5107;48.850;8.924;2023-06-10T13:17:45;96484.09;;;28.25;36.16